sensor_id;sensor_type;location;lat;lon;timestamp;P1;durP1;ratioP1;P2;durP2;ratioP2
47966;SDS011;33733;52.456;13.620;2023-07-02T00:02:25;2.13;;;0.63;;
47966;SDS011;33733;52.456;13.620;2023-07-02T00:04:52;2.35;;;0.75;;
47966;SDS011;33733;52.456;13.620;2023-07-02T00:07:19;1.13;;;0.32;;
47966;SDS011;33733;52.456;13.620;2023-07-02T00:09:45;2.63;;;1.05;;
47966;SDS011;33733;52.456;13.620;2023-07-02T00:12:12;1.45;;;0.65;;
47966;SDS011;33733;52.456;13.620;2023-07-02T00:14:39;1.95;;;0.35;;
47966;SDS011;33733;52.456;13.620;2023-07-02T00:17:06;2.75;;;1.13;;
47966;SDS011;33733;52.456;13.620;2023-07-02T00:19:32;2.50;;;0.63;;
47966;SDS011;33733;52.456;13.620;2023-07-02T00:21:59;1.83;;;0.75;;
47966;SDS011;33733;52.456;13.620;2023-07-02T00:24:26;2.78;;;1.08;;
47966;SDS011;33733;52.456;13.620;2023-07-02T00:26:53;2.53;;;0.68;;
47966;SDS011;33733;52.456;13.620;2023-07-02T00:29:19;1.85;;;0.47;;
47966;SDS011;33733;52.456;13.620;2023-07-02T00:31:46;2.13;;;0.63;;
47966;SDS011;33733;52.456;13.620;2023-07-02T00:34:13;3.83;;;0.95;;
47966;SDS011;33733;52.456;13.620;2023-07-02T00:36:40;1.52;;;0.47;;
47966;SDS011;33733;52.456;13.620;2023-07-02T00:39:09;3.50;;;1.00;;
47966;SDS011;33733;52.456;13.620;2023-07-02T00:41:38;3.03;;;1.20;;
47966;SDS011;33733;52.456;13.620;2023-07-02T00:44:05;2.50;;;1.15;;
47966;SDS011;33733;52.456;13.620;2023-07-02T00:46:32;4.47;;;0.50;;
47966;SDS011;33733;52.456;13.620;2023-07-02T00:48:58;2.08;;;0.75;;
47966;SDS011;33733;52.456;13.620;2023-07-02T00:51:28;3.25;;;1.25;;
47966;SDS011;33733;52.456;13.620;2023-07-02T00:53:56;3.28;;;1.38;;
47966;SDS011;33733;52.456;13.620;2023-07-02T00:56:25;1.40;;;0.43;;
47966;SDS011;33733;52.456;13.620;2023-07-02T00:58:53;2.47;;;0.95;;
47966;SDS011;33733;52.456;13.620;2023-07-02T01:01:21;1.55;;;0.43;;
47966;SDS011;33733;52.456;13.620;2023-07-02T01:03:58;1.65;;;0.40;;
47966;SDS011;33733;52.456;13.620;2023-07-02T01:06:27;1.83;;;0.45;;
47966;SDS011;33733;52.456;13.620;2023-07-02T01:09:00;3.33;;;1.25;;
47966;SDS011;33733;52.456;13.620;2023-07-02T01:14:07;2.60;;;0.52;;
47966;SDS011;33733;52.456;13.620;2023-07-02T01:16:35;1.52;;;0.32;;
47966;SDS011;33733;52.456;13.620;2023-07-02T01:19:05;3.22;;;1.73;;
47966;SDS011;33733;52.456;13.620;2023-07-02T01:21:36;2.70;;;1.20;;
47966;SDS011;33733;52.456;13.620;2023-07-02T01:24:03;3.30;;;1.48;;
47966;SDS011;33733;52.456;13.620;2023-07-02T01:26:31;3.38;;;1.58;;
47966;SDS011;33733;52.456;13.620;2023-07-02T01:29:14;3.88;;;1.50;;
47966;SDS011;33733;52.456;13.620;2023-07-02T01:31:41;2.67;;;0.65;;
47966;SDS011;33733;52.456;13.620;2023-07-02T01:34:08;2.95;;;1.27;;
47966;SDS011;33733;52.456;13.620;2023-07-02T01:36:36;2.42;;;0.52;;
47966;SDS011;33733;52.456;13.620;2023-07-02T01:39:03;2.33;;;0.63;;
47966;SDS011;33733;52.456;13.620;2023-07-02T01:41:31;5.82;;;1.70;;
47966;SDS011;33733;52.456;13.620;2023-07-02T01:44:03;2.40;;;0.60;;
47966;SDS011;33733;52.456;13.620;2023-07-02T01:46:33;2.47;;;0.65;;
47966;SDS011;33733;52.456;13.620;2023-07-02T01:49:00;3.47;;;1.58;;
47966;SDS011;33733;52.456;13.620;2023-07-02T01:51:26;5.75;;;1.80;;
47966;SDS011;33733;52.456;13.620;2023-07-02T01:53:54;3.58;;;0.77;;
47966;SDS011;33733;52.456;13.620;2023-07-02T01:56:24;3.55;;;1.63;;
47966;SDS011;33733;52.456;13.620;2023-07-02T01:58:53;3.22;;;1.85;;
47966;SDS011;33733;52.456;13.620;2023-07-02T02:01:20;3.15;;;1.45;;
47966;SDS011;33733;52.456;13.620;2023-07-02T02:03:47;4.20;;;1.70;;
47966;SDS011;33733;52.456;13.620;2023-07-02T02:06:14;4.35;;;0.50;;
47966;SDS011;33733;52.456;13.620;2023-07-02T02:08:40;4.10;;;1.80;;
47966;SDS011;33733;52.456;13.620;2023-07-02T02:11:09;4.30;;;1.40;;
47966;SDS011;33733;52.456;13.620;2023-07-02T02:13:36;4.35;;;2.38;;
47966;SDS011;33733;52.456;13.620;2023-07-02T02:16:03;2.78;;;0.95;;
47966;SDS011;33733;52.456;13.620;2023-07-02T02:18:33;3.78;;;1.83;;
47966;SDS011;33733;52.456;13.620;2023-07-02T02:21:01;3.83;;;1.08;;
47966;SDS011;33733;52.456;13.620;2023-07-02T02:23:27;3.47;;;1.17;;
47966;SDS011;33733;52.456;13.620;2023-07-02T02:25:54;2.60;;;1.10;;
47966;SDS011;33733;52.456;13.620;2023-07-02T02:28:20;3.70;;;1.02;;
47966;SDS011;33733;52.456;13.620;2023-07-02T02:30:47;3.78;;;1.55;;
47966;SDS011;33733;52.456;13.620;2023-07-02T02:33:15;4.65;;;1.90;;
47966;SDS011;33733;52.456;13.620;2023-07-02T02:35:43;4.00;;;1.25;;
47966;SDS011;33733;52.456;13.620;2023-07-02T02:38:10;3.70;;;1.33;;
47966;SDS011;33733;52.456;13.620;2023-07-02T02:40:37;4.00;;;1.60;;
47966;SDS011;33733;52.456;13.620;2023-07-02T02:43:07;5.28;;;1.92;;
47966;SDS011;33733;52.456;13.620;2023-07-02T02:45:35;4.65;;;1.77;;
47966;SDS011;33733;52.456;13.620;2023-07-02T02:48:02;3.75;;;1.55;;
47966;SDS011;33733;52.456;13.620;2023-07-02T02:50:29;4.32;;;1.95;;
47966;SDS011;33733;52.456;13.620;2023-07-02T02:52:56;3.45;;;1.77;;
47966;SDS011;33733;52.456;13.620;2023-07-02T02:55:22;3.90;;;1.65;;
47966;SDS011;33733;52.456;13.620;2023-07-02T02:57:49;3.70;;;1.73;;
47966;SDS011;33733;52.456;13.620;2023-07-02T03:00:16;4.75;;;1.35;;
47966;SDS011;33733;52.456;13.620;2023-07-02T03:02:43;4.68;;;2.15;;
47966;SDS011;33733;52.456;13.620;2023-07-02T03:05:10;2.63;;;0.68;;
47966;SDS011;33733;52.456;13.620;2023-07-02T03:07:37;3.70;;;1.83;;
47966;SDS011;33733;52.456;13.620;2023-07-02T03:10:04;3.97;;;1.80;;
47966;SDS011;33733;52.456;13.620;2023-07-02T03:12:32;3.42;;;1.38;;
47966;SDS011;33733;52.456;13.620;2023-07-02T03:14:58;3.78;;;1.95;;
47966;SDS011;33733;52.456;13.620;2023-07-02T03:17:25;4.30;;;1.88;;
47966;SDS011;33733;52.456;13.620;2023-07-02T03:19:52;3.70;;;1.85;;
47966;SDS011;33733;52.456;13.620;2023-07-02T03:22:18;2.97;;;0.98;;
47966;SDS011;33733;52.456;13.620;2023-07-02T03:24:45;3.13;;;1.38;;
47966;SDS011;33733;52.456;13.620;2023-07-02T03:27:15;3.90;;;1.67;;
47966;SDS011;33733;52.456;13.620;2023-07-02T03:29:42;2.55;;;0.73;;
47966;SDS011;33733;52.456;13.620;2023-07-02T03:32:08;4.55;;;1.85;;
47966;SDS011;33733;52.456;13.620;2023-07-02T03:34:35;2.85;;;1.02;;
47966;SDS011;33733;52.456;13.620;2023-07-02T03:37:02;4.47;;;2.28;;
47966;SDS011;33733;52.456;13.620;2023-07-02T03:39:28;4.30;;;1.20;;
47966;SDS011;33733;52.456;13.620;2023-07-02T03:41:55;3.65;;;1.55;;
47966;SDS011;33733;52.456;13.620;2023-07-02T03:44:21;3.72;;;1.42;;
47966;SDS011;33733;52.456;13.620;2023-07-02T03:46:49;2.47;;;1.02;;
47966;SDS011;33733;52.456;13.620;2023-07-02T03:49:16;4.63;;;1.27;;
47966;SDS011;33733;52.456;13.620;2023-07-02T03:51:43;2.97;;;0.93;;
47966;SDS011;33733;52.456;13.620;2023-07-02T03:54:09;2.63;;;0.75;;
47966;SDS011;33733;52.456;13.620;2023-07-02T03:56:36;4.95;;;1.42;;
47966;SDS011;33733;52.456;13.620;2023-07-02T03:59:03;2.47;;;1.08;;
47966;SDS011;33733;52.456;13.620;2023-07-02T04:01:29;2.22;;;0.63;;
47966;SDS011;33733;52.456;13.620;2023-07-02T04:03:56;3.42;;;0.80;;
47966;SDS011;33733;52.456;13.620;2023-07-02T04:06:23;2.70;;;0.73;;
47966;SDS011;33733;52.456;13.620;2023-07-02T04:08:50;2.63;;;1.02;;
47966;SDS011;33733;52.456;13.620;2023-07-02T04:11:16;4.15;;;1.20;;
47966;SDS011;33733;52.456;13.620;2023-07-02T04:13:43;2.60;;;1.15;;
47966;SDS011;33733;52.456;13.620;2023-07-02T04:16:10;2.38;;;0.60;;
47966;SDS011;33733;52.456;13.620;2023-07-02T04:18:37;3.75;;;1.45;;
47966;SDS011;33733;52.456;13.620;2023-07-02T04:21:03;2.83;;;0.82;;
47966;SDS011;33733;52.456;13.620;2023-07-02T04:23:30;3.10;;;1.48;;
47966;SDS011;33733;52.456;13.620;2023-07-02T04:25:57;3.53;;;0.88;;
47966;SDS011;33733;52.456;13.620;2023-07-02T04:28:44;2.28;;;0.57;;
47966;SDS011;33733;52.456;13.620;2023-07-02T04:31:11;3.45;;;0.85;;
47966;SDS011;33733;52.456;13.620;2023-07-02T04:33:37;1.38;;;0.47;;
47966;SDS011;33733;52.456;13.620;2023-07-02T04:36:06;2.50;;;0.77;;
47966;SDS011;33733;52.456;13.620;2023-07-02T04:38:33;2.03;;;0.50;;
47966;SDS011;33733;52.456;13.620;2023-07-02T04:40:59;3.22;;;1.38;;
47966;SDS011;33733;52.456;13.620;2023-07-02T04:43:32;2.53;;;1.02;;
47966;SDS011;33733;52.456;13.620;2023-07-02T04:45:59;2.72;;;1.30;;
47966;SDS011;33733;52.456;13.620;2023-07-02T04:48:26;3.20;;;1.30;;
47966;SDS011;33733;52.456;13.620;2023-07-02T04:50:53;2.90;;;1.30;;
47966;SDS011;33733;52.456;13.620;2023-07-02T04:53:20;3.53;;;1.52;;
47966;SDS011;33733;52.456;13.620;2023-07-02T04:55:46;3.67;;;0.98;;
47966;SDS011;33733;52.456;13.620;2023-07-02T04:58:13;5.03;;;1.52;;
47966;SDS011;33733;52.456;13.620;2023-07-02T05:00:40;4.57;;;2.72;;
47966;SDS011;33733;52.456;13.620;2023-07-02T05:03:06;2.83;;;0.77;;
47966;SDS011;33733;52.456;13.620;2023-07-02T05:05:33;2.08;;;0.52;;
47966;SDS011;33733;52.456;13.620;2023-07-02T05:08:00;4.32;;;1.70;;
47966;SDS011;33733;52.456;13.620;2023-07-02T05:10:26;3.65;;;1.60;;
47966;SDS011;33733;52.456;13.620;2023-07-02T05:12:53;2.92;;;0.82;;
47966;SDS011;33733;52.456;13.620;2023-07-02T05:15:20;4.32;;;1.92;;
47966;SDS011;33733;52.456;13.620;2023-07-02T05:17:46;3.17;;;1.23;;
47966;SDS011;33733;52.456;13.620;2023-07-02T05:20:13;4.10;;;1.60;;
47966;SDS011;33733;52.456;13.620;2023-07-02T05:22:40;3.30;;;1.77;;
47966;SDS011;33733;52.456;13.620;2023-07-02T05:25:07;2.33;;;0.80;;
47966;SDS011;33733;52.456;13.620;2023-07-02T05:27:34;3.50;;;1.70;;
47966;SDS011;33733;52.456;13.620;2023-07-02T05:30:00;2.28;;;0.55;;
47966;SDS011;33733;52.456;13.620;2023-07-02T05:32:27;1.42;;;0.55;;
47966;SDS011;33733;52.456;13.620;2023-07-02T05:34:53;3.58;;;1.65;;
47966;SDS011;33733;52.456;13.620;2023-07-02T05:37:20;3.00;;;0.80;;
47966;SDS011;33733;52.456;13.620;2023-07-02T05:39:47;2.10;;;0.73;;
47966;SDS011;33733;52.456;13.620;2023-07-02T05:42:14;3.22;;;1.00;;
47966;SDS011;33733;52.456;13.620;2023-07-02T05:44:41;2.67;;;0.73;;
47966;SDS011;33733;52.456;13.620;2023-07-02T05:47:08;3.30;;;1.27;;
47966;SDS011;33733;52.456;13.620;2023-07-02T05:49:34;4.60;;;2.42;;
47966;SDS011;33733;52.456;13.620;2023-07-02T05:52:01;3.08;;;0.73;;
47966;SDS011;33733;52.456;13.620;2023-07-02T05:54:28;2.40;;;0.60;;
47966;SDS011;33733;52.456;13.620;2023-07-02T05:56:54;2.15;;;0.68;;
47966;SDS011;33733;52.456;13.620;2023-07-02T05:59:21;2.78;;;0.55;;
47966;SDS011;33733;52.456;13.620;2023-07-02T06:01:48;2.35;;;0.57;;
47966;SDS011;33733;52.456;13.620;2023-07-02T06:04:14;2.05;;;0.45;;
47966;SDS011;33733;52.456;13.620;2023-07-02T06:06:41;3.20;;;0.95;;
47966;SDS011;33733;52.456;13.620;2023-07-02T06:09:08;2.75;;;0.80;;
47966;SDS011;33733;52.456;13.620;2023-07-02T06:11:35;2.67;;;0.75;;
47966;SDS011;33733;52.456;13.620;2023-07-02T06:14:02;2.90;;;0.47;;
47966;SDS011;33733;52.456;13.620;2023-07-02T06:16:28;3.70;;;1.63;;
47966;SDS011;33733;52.456;13.620;2023-07-02T06:18:55;4.00;;;1.52;;
47966;SDS011;33733;52.456;13.620;2023-07-02T06:21:22;2.38;;;0.73;;
47966;SDS011;33733;52.456;13.620;2023-07-02T06:23:49;3.55;;;0.73;;
47966;SDS011;33733;52.456;13.620;2023-07-02T06:26:16;4.65;;;1.42;;
47966;SDS011;33733;52.456;13.620;2023-07-02T06:28:42;3.72;;;0.73;;
47966;SDS011;33733;52.456;13.620;2023-07-02T06:31:09;2.30;;;0.43;;
47966;SDS011;33733;52.456;13.620;2023-07-02T06:33:38;5.22;;;0.63;;
47966;SDS011;33733;52.456;13.620;2023-07-02T06:36:06;2.80;;;0.88;;
47966;SDS011;33733;52.456;13.620;2023-07-02T06:38:33;3.55;;;1.65;;
47966;SDS011;33733;52.456;13.620;2023-07-02T06:40:59;3.88;;;0.63;;
47966;SDS011;33733;52.456;13.620;2023-07-02T06:43:26;3.00;;;1.20;;
47966;SDS011;33733;52.456;13.620;2023-07-02T06:45:53;3.97;;;1.80;;
47966;SDS011;33733;52.456;13.620;2023-07-02T06:48:20;1.63;;;0.47;;
47966;SDS011;33733;52.456;13.620;2023-07-02T06:50:48;1.48;;;0.52;;
47966;SDS011;33733;52.456;13.620;2023-07-02T06:53:15;1.92;;;0.55;;
47966;SDS011;33733;52.456;13.620;2023-07-02T06:55:42;3.75;;;0.90;;
47966;SDS011;33733;52.456;13.620;2023-07-02T06:58:08;2.38;;;0.77;;
47966;SDS011;33733;52.456;13.620;2023-07-02T07:00:35;3.20;;;1.50;;
47966;SDS011;33733;52.456;13.620;2023-07-02T07:03:05;3.10;;;1.30;;
47966;SDS011;33733;52.456;13.620;2023-07-02T07:05:32;4.45;;;2.13;;
47966;SDS011;33733;52.456;13.620;2023-07-02T07:07:59;4.15;;;1.65;;
47966;SDS011;33733;52.456;13.620;2023-07-02T07:10:31;3.10;;;1.27;;
47966;SDS011;33733;52.456;13.620;2023-07-02T07:13:01;7.05;;;1.08;;
47966;SDS011;33733;52.456;13.620;2023-07-02T07:15:32;4.00;;;1.80;;
47966;SDS011;33733;52.456;13.620;2023-07-02T07:18:01;2.05;;;0.85;;
47966;SDS011;33733;52.456;13.620;2023-07-02T07:20:28;2.97;;;0.95;;
47966;SDS011;33733;52.456;13.620;2023-07-02T07:22:56;2.97;;;1.38;;
47966;SDS011;33733;52.456;13.620;2023-07-02T07:25:23;3.05;;;1.40;;
47966;SDS011;33733;52.456;13.620;2023-07-02T07:27:50;4.15;;;2.00;;
47966;SDS011;33733;52.456;13.620;2023-07-02T07:30:17;3.15;;;0.93;;
47966;SDS011;33733;52.456;13.620;2023-07-02T07:32:49;3.40;;;1.08;;
47966;SDS011;33733;52.456;13.620;2023-07-02T07:35:20;2.55;;;0.57;;
47966;SDS011;33733;52.456;13.620;2023-07-02T07:37:48;3.00;;;1.30;;
47966;SDS011;33733;52.456;13.620;2023-07-02T07:40:15;3.25;;;0.80;;
47966;SDS011;33733;52.456;13.620;2023-07-02T07:42:42;3.83;;;0.95;;
47966;SDS011;33733;52.456;13.620;2023-07-02T07:45:09;3.90;;;1.30;;
47966;SDS011;33733;52.456;13.620;2023-07-02T07:47:38;4.55;;;1.92;;
47966;SDS011;33733;52.456;13.620;2023-07-02T07:50:06;3.33;;;0.73;;
47966;SDS011;33733;52.456;13.620;2023-07-02T07:52:40;3.13;;;1.58;;
47966;SDS011;33733;52.456;13.620;2023-07-02T07:55:08;3.75;;;1.73;;
47966;SDS011;33733;52.456;13.620;2023-07-02T07:57:35;3.63;;;1.95;;
47966;SDS011;33733;52.456;13.620;2023-07-02T08:00:03;4.47;;;1.13;;
47966;SDS011;33733;52.456;13.620;2023-07-02T08:02:43;3.35;;;0.70;;
47966;SDS011;33733;52.456;13.620;2023-07-02T08:05:11;2.85;;;1.17;;
47966;SDS011;33733;52.456;13.620;2023-07-02T08:07:38;4.25;;;1.60;;
47966;SDS011;33733;52.456;13.620;2023-07-02T08:10:06;2.47;;;0.55;;
47966;SDS011;33733;52.456;13.620;2023-07-02T08:12:36;4.53;;;1.63;;
47966;SDS011;33733;52.456;13.620;2023-07-02T08:15:03;4.07;;;1.35;;
47966;SDS011;33733;52.456;13.620;2023-07-02T08:17:30;3.78;;;1.92;;
47966;SDS011;33733;52.456;13.620;2023-07-02T08:19:57;1.85;;;0.50;;
47966;SDS011;33733;52.456;13.620;2023-07-02T08:22:24;3.33;;;1.55;;
47966;SDS011;33733;52.456;13.620;2023-07-02T08:24:50;12.05;;;1.38;;
47966;SDS011;33733;52.456;13.620;2023-07-02T08:27:17;3.50;;;1.58;;
47966;SDS011;33733;52.456;13.620;2023-07-02T08:29:48;3.25;;;1.02;;
47966;SDS011;33733;52.456;13.620;2023-07-02T08:32:24;2.88;;;0.68;;
47966;SDS011;33733;52.456;13.620;2023-07-02T08:34:50;3.45;;;1.33;;
47966;SDS011;33733;52.456;13.620;2023-07-02T08:37:20;3.55;;;0.73;;
47966;SDS011;33733;52.456;13.620;2023-07-02T08:39:51;2.90;;;1.17;;
47966;SDS011;33733;52.456;13.620;2023-07-02T08:42:20;3.50;;;1.60;;
47966;SDS011;33733;52.456;13.620;2023-07-02T08:44:47;2.95;;;1.13;;
47966;SDS011;33733;52.456;13.620;2023-07-02T08:47:14;3.72;;;1.38;;
47966;SDS011;33733;52.456;13.620;2023-07-02T08:49:41;2.00;;;0.73;;
47966;SDS011;33733;52.456;13.620;2023-07-02T08:52:08;2.45;;;0.55;;
47966;SDS011;33733;52.456;13.620;2023-07-02T08:54:34;3.38;;;1.33;;
47966;SDS011;33733;52.456;13.620;2023-07-02T08:57:01;3.03;;;1.23;;
47966;SDS011;33733;52.456;13.620;2023-07-02T08:59:31;3.10;;;1.30;;
47966;SDS011;33733;52.456;13.620;2023-07-02T09:02:00;3.67;;;1.48;;
47966;SDS011;33733;52.456;13.620;2023-07-02T09:04:30;4.10;;;1.95;;
47966;SDS011;33733;52.456;13.620;2023-07-02T09:07:03;4.32;;;1.25;;
47966;SDS011;33733;52.456;13.620;2023-07-02T09:09:31;4.05;;;1.80;;
47966;SDS011;33733;52.456;13.620;2023-07-02T09:11:58;3.90;;;1.90;;
47966;SDS011;33733;52.456;13.620;2023-07-02T09:17:02;4.60;;;0.85;;
47966;SDS011;33733;52.456;13.620;2023-07-02T09:19:30;3.30;;;2.00;;
47966;SDS011;33733;52.456;13.620;2023-07-02T09:21:57;4.07;;;1.52;;
47966;SDS011;33733;52.456;13.620;2023-07-02T09:24:28;3.80;;;1.77;;
47966;SDS011;33733;52.456;13.620;2023-07-02T09:27:00;4.75;;;0.73;;
47966;SDS011;33733;52.456;13.620;2023-07-02T09:31:58;5.22;;;1.90;;
47966;SDS011;33733;52.456;13.620;2023-07-02T09:34:37;3.97;;;0.98;;
47966;SDS011;33733;52.456;13.620;2023-07-02T09:37:06;5.05;;;1.73;;
47966;SDS011;33733;52.456;13.620;2023-07-02T09:39:40;8.40;;;1.95;;
47966;SDS011;33733;52.456;13.620;2023-07-02T09:42:14;4.78;;;1.90;;
47966;SDS011;33733;52.456;13.620;2023-07-02T09:44:41;5.32;;;2.17;;
47966;SDS011;33733;52.456;13.620;2023-07-02T09:47:09;7.15;;;2.33;;
47966;SDS011;33733;52.456;13.620;2023-07-02T09:49:41;3.65;;;0.82;;
47966;SDS011;33733;52.456;13.620;2023-07-02T09:52:10;5.35;;;2.30;;
47966;SDS011;33733;52.456;13.620;2023-07-02T09:54:41;4.97;;;1.92;;
47966;SDS011;33733;52.456;13.620;2023-07-02T09:57:29;7.00;;;1.27;;
47966;SDS011;33733;52.456;13.620;2023-07-02T10:00:01;4.22;;;1.65;;
47966;SDS011;33733;52.456;13.620;2023-07-02T10:02:31;4.18;;;1.98;;
47966;SDS011;33733;52.456;13.620;2023-07-02T10:04:58;3.75;;;0.98;;
47966;SDS011;33733;52.456;13.620;2023-07-02T10:10:30;3.30;;;1.63;;
47966;SDS011;33733;52.456;13.620;2023-07-02T10:12:57;3.47;;;1.67;;
47966;SDS011;33733;52.456;13.620;2023-07-02T10:15:25;5.32;;;1.70;;
47966;SDS011;33733;52.456;13.620;2023-07-02T10:17:57;3.45;;;1.00;;
47966;SDS011;33733;52.456;13.620;2023-07-02T10:20:34;3.38;;;1.58;;
47966;SDS011;33733;52.456;13.620;2023-07-02T10:23:03;5.45;;;2.67;;
47966;SDS011;33733;52.456;13.620;2023-07-02T10:25:31;4.72;;;1.33;;
47966;SDS011;33733;52.456;13.620;2023-07-02T10:28:00;6.57;;;2.58;;
47966;SDS011;33733;52.456;13.620;2023-07-02T10:30:35;4.85;;;1.90;;
47966;SDS011;33733;52.456;13.620;2023-07-02T10:33:07;5.30;;;1.98;;
47966;SDS011;33733;52.456;13.620;2023-07-02T10:35:41;6.75;;;2.60;;
47966;SDS011;33733;52.456;13.620;2023-07-02T10:38:20;6.53;;;1.42;;
47966;SDS011;33733;52.456;13.620;2023-07-02T10:40:58;8.80;;;2.17;;
47966;SDS011;33733;52.456;13.620;2023-07-02T10:43:29;7.28;;;0.88;;
47966;SDS011;33733;52.456;13.620;2023-07-02T10:45:57;3.55;;;0.98;;
47966;SDS011;33733;52.456;13.620;2023-07-02T10:48:26;4.78;;;2.13;;
47966;SDS011;33733;52.456;13.620;2023-07-02T10:50:53;5.43;;;1.52;;
47966;SDS011;33733;52.456;13.620;2023-07-02T10:53:20;6.72;;;1.63;;
47966;SDS011;33733;52.456;13.620;2023-07-02T10:55:56;6.25;;;3.08;;
47966;SDS011;33733;52.456;13.620;2023-07-02T10:58:24;7.72;;;3.05;;
47966;SDS011;33733;52.456;13.620;2023-07-02T11:00:52;5.57;;;0.93;;
47966;SDS011;33733;52.456;13.620;2023-07-02T11:03:23;6.43;;;1.55;;
47966;SDS011;33733;52.456;13.620;2023-07-02T11:05:53;5.85;;;1.92;;
47966;SDS011;33733;52.456;13.620;2023-07-02T11:08:21;9.60;;;3.15;;
47966;SDS011;33733;52.456;13.620;2023-07-02T11:13:57;5.28;;;2.15;;
47966;SDS011;33733;52.456;13.620;2023-07-02T11:16:28;7.38;;;3.47;;
47966;SDS011;33733;52.456;13.620;2023-07-02T11:19:08;7.85;;;2.42;;
47966;SDS011;33733;52.456;13.620;2023-07-02T11:21:50;5.13;;;2.83;;
47966;SDS011;33733;52.456;13.620;2023-07-02T11:24:33;7.53;;;2.60;;
47966;SDS011;33733;52.456;13.620;2023-07-02T11:27:05;4.72;;;1.42;;
47966;SDS011;33733;52.456;13.620;2023-07-02T11:29:34;4.60;;;1.40;;
47966;SDS011;33733;52.456;13.620;2023-07-02T11:32:06;6.15;;;1.40;;
47966;SDS011;33733;52.456;13.620;2023-07-02T11:34:38;5.90;;;1.75;;
47966;SDS011;33733;52.456;13.620;2023-07-02T11:37:05;5.43;;;2.58;;
47966;SDS011;33733;52.456;13.620;2023-07-02T11:39:32;5.72;;;2.92;;
47966;SDS011;33733;52.456;13.620;2023-07-02T11:42:11;5.90;;;1.85;;
47966;SDS011;33733;52.456;13.620;2023-07-02T11:44:40;6.80;;;1.67;;
47966;SDS011;33733;52.456;13.620;2023-07-02T11:47:11;7.07;;;3.45;;
47966;SDS011;33733;52.456;13.620;2023-07-02T11:49:38;7.53;;;2.80;;
47966;SDS011;33733;52.456;13.620;2023-07-02T11:52:05;8.38;;;2.33;;
47966;SDS011;33733;52.456;13.620;2023-07-02T11:54:43;7.30;;;3.83;;
47966;SDS011;33733;52.456;13.620;2023-07-02T11:57:19;5.60;;;1.85;;
47966;SDS011;33733;52.456;13.620;2023-07-02T11:59:48;7.38;;;3.03;;
47966;SDS011;33733;52.456;13.620;2023-07-02T12:02:15;8.15;;;3.58;;
47966;SDS011;33733;52.456;13.620;2023-07-02T12:04:43;8.40;;;3.50;;
47966;SDS011;33733;52.456;13.620;2023-07-02T12:07:14;8.57;;;2.92;;
47966;SDS011;33733;52.456;13.620;2023-07-02T12:09:41;6.07;;;3.25;;
47966;SDS011;33733;52.456;13.620;2023-07-02T12:12:08;6.75;;;2.70;;
47966;SDS011;33733;52.456;13.620;2023-07-02T12:14:34;7.50;;;3.60;;
47966;SDS011;33733;52.456;13.620;2023-07-02T12:17:01;7.47;;;1.92;;
47966;SDS011;33733;52.456;13.620;2023-07-02T12:19:30;7.43;;;2.05;;
47966;SDS011;33733;52.456;13.620;2023-07-02T12:21:57;8.73;;;2.95;;
47966;SDS011;33733;52.456;13.620;2023-07-02T12:24:23;7.28;;;2.97;;
47966;SDS011;33733;52.456;13.620;2023-07-02T12:26:50;6.18;;;2.00;;
47966;SDS011;33733;52.456;13.620;2023-07-02T12:29:17;5.72;;;1.73;;
47966;SDS011;33733;52.456;13.620;2023-07-02T12:31:44;8.15;;;3.17;;
47966;SDS011;33733;52.456;13.620;2023-07-02T12:34:10;6.93;;;2.95;;
47966;SDS011;33733;52.456;13.620;2023-07-02T12:36:37;8.77;;;3.47;;
47966;SDS011;33733;52.456;13.620;2023-07-02T12:39:03;7.47;;;1.60;;
47966;SDS011;33733;52.456;13.620;2023-07-02T12:41:33;7.22;;;1.42;;
47966;SDS011;33733;52.456;13.620;2023-07-02T12:44:00;8.82;;;3.28;;
47966;SDS011;33733;52.456;13.620;2023-07-02T12:46:26;7.70;;;3.13;;
47966;SDS011;33733;52.456;13.620;2023-07-02T12:48:53;7.85;;;4.10;;
47966;SDS011;33733;52.456;13.620;2023-07-02T12:51:19;9.65;;;3.70;;
47966;SDS011;33733;52.456;13.620;2023-07-02T12:53:46;7.35;;;2.10;;
47966;SDS011;33733;52.456;13.620;2023-07-02T12:56:13;7.65;;;2.35;;
47966;SDS011;33733;52.456;13.620;2023-07-02T12:58:40;10.05;;;2.25;;
47966;SDS011;33733;52.456;13.620;2023-07-02T13:01:07;5.32;;;2.25;;
47966;SDS011;33733;52.456;13.620;2023-07-02T13:03:33;8.50;;;3.35;;
47966;SDS011;33733;52.456;13.620;2023-07-02T13:06:00;8.65;;;3.33;;
47966;SDS011;33733;52.456;13.620;2023-07-02T13:08:27;7.45;;;2.63;;
47966;SDS011;33733;52.456;13.620;2023-07-02T13:10:54;5.70;;;2.00;;
47966;SDS011;33733;52.456;13.620;2023-07-02T13:13:20;6.13;;;1.80;;
47966;SDS011;33733;52.456;13.620;2023-07-02T13:15:49;6.05;;;1.73;;
47966;SDS011;33733;52.456;13.620;2023-07-02T13:18:16;7.03;;;3.13;;
47966;SDS011;33733;52.456;13.620;2023-07-02T13:20:43;5.43;;;1.45;;
47966;SDS011;33733;52.456;13.620;2023-07-02T13:23:10;5.57;;;2.75;;
47966;SDS011;33733;52.456;13.620;2023-07-02T13:25:36;7.30;;;3.33;;
47966;SDS011;33733;52.456;13.620;2023-07-02T13:28:03;9.32;;;3.22;;
47966;SDS011;33733;52.456;13.620;2023-07-02T13:30:30;7.03;;;2.22;;
47966;SDS011;33733;52.456;13.620;2023-07-02T13:32:57;5.22;;;1.50;;
47966;SDS011;33733;52.456;13.620;2023-07-02T13:35:24;7.20;;;3.05;;
47966;SDS011;33733;52.456;13.620;2023-07-02T13:37:51;8.50;;;3.88;;
47966;SDS011;33733;52.456;13.620;2023-07-02T13:40:17;4.78;;;1.70;;
47966;SDS011;33733;52.456;13.620;2023-07-02T13:42:44;6.93;;;2.88;;
47966;SDS011;33733;52.456;13.620;2023-07-02T13:45:20;5.40;;;1.52;;
47966;SDS011;33733;52.456;13.620;2023-07-02T13:47:46;7.93;;;2.80;;
47966;SDS011;33733;52.456;13.620;2023-07-02T13:50:13;7.25;;;3.25;;
47966;SDS011;33733;52.456;13.620;2023-07-02T13:52:40;8.93;;;2.75;;
47966;SDS011;33733;52.456;13.620;2023-07-02T13:55:06;7.47;;;4.38;;
47966;SDS011;33733;52.456;13.620;2023-07-02T13:57:33;7.13;;;2.08;;
47966;SDS011;33733;52.456;13.620;2023-07-02T14:00:00;9.02;;;2.28;;
47966;SDS011;33733;52.456;13.620;2023-07-02T14:02:30;5.45;;;1.65;;
47966;SDS011;33733;52.456;13.620;2023-07-02T14:04:58;7.72;;;2.40;;
47966;SDS011;33733;52.456;13.620;2023-07-02T14:07:26;4.63;;;1.20;;
47966;SDS011;33733;52.456;13.620;2023-07-02T14:09:53;9.35;;;1.90;;
47966;SDS011;33733;52.456;13.620;2023-07-02T14:12:21;5.50;;;1.90;;
47966;SDS011;33733;52.456;13.620;2023-07-02T14:14:48;7.22;;;3.28;;
47966;SDS011;33733;52.456;13.620;2023-07-02T14:17:15;6.75;;;2.00;;
47966;SDS011;33733;52.456;13.620;2023-07-02T14:19:42;7.80;;;2.20;;
47966;SDS011;33733;52.456;13.620;2023-07-02T14:22:09;6.82;;;2.25;;
47966;SDS011;33733;52.456;13.620;2023-07-02T14:24:36;6.50;;;1.85;;
47966;SDS011;33733;52.456;13.620;2023-07-02T14:27:04;7.53;;;3.75;;
47966;SDS011;33733;52.456;13.620;2023-07-02T14:29:31;8.30;;;3.53;;
47966;SDS011;33733;52.456;13.620;2023-07-02T14:31:57;8.52;;;3.33;;
47966;SDS011;33733;52.456;13.620;2023-07-02T14:34:24;7.13;;;1.77;;
47966;SDS011;33733;52.456;13.620;2023-07-02T14:36:51;7.90;;;2.83;;
47966;SDS011;33733;52.456;13.620;2023-07-02T14:39:17;5.15;;;2.42;;
47966;SDS011;33733;52.456;13.620;2023-07-02T14:41:44;8.25;;;1.88;;
47966;SDS011;33733;52.456;13.620;2023-07-02T14:44:10;7.25;;;2.05;;
47966;SDS011;33733;52.456;13.620;2023-07-02T14:46:37;5.80;;;1.38;;
47966;SDS011;33733;52.456;13.620;2023-07-02T14:49:04;6.93;;;2.15;;
47966;SDS011;33733;52.456;13.620;2023-07-02T14:51:31;7.35;;;3.58;;
47966;SDS011;33733;52.456;13.620;2023-07-02T14:53:57;6.95;;;3.00;;